createdAt,value
2023-08-08T00:00:23.083Z,14.47
2023-08-08T00:02:49.666Z,14.45
2023-08-08T00:05:16.979Z,14.43
2023-08-08T00:07:43.606Z,14.43
2023-08-08T00:10:10.531Z,14.38
2023-08-08T00:12:37.074Z,14.32
2023-08-08T00:15:03.749Z,14.30
2023-08-08T00:17:30.412Z,14.25
2023-08-08T00:19:57.217Z,14.22
2023-08-08T00:22:23.801Z,14.24
2023-08-08T00:24:50.293Z,14.20
2023-08-08T00:27:16.946Z,14.22
2023-08-08T00:29:43.876Z,14.19
2023-08-08T00:32:10.390Z,14.16
2023-08-08T00:34:37.067Z,14.20
2023-08-08T00:37:03.742Z,14.20
2023-08-08T00:39:30.202Z,14.17
2023-08-08T00:41:57.240Z,14.10
2023-08-08T00:44:24.004Z,14.08
2023-08-08T00:46:50.618Z,14.06
2023-08-08T00:49:17.315Z,14.04
2023-08-08T00:51:43.919Z,14.02
2023-08-08T00:54:11.242Z,13.94
2023-08-08T00:56:37.843Z,13.88
2023-08-08T00:59:04.575Z,13.86
2023-08-08T01:01:31.100Z,13.81
2023-08-08T01:03:59.200Z,13.75
2023-08-08T01:06:36.473Z,13.67
2023-08-08T01:09:08.595Z,13.69
2023-08-08T01:11:36.643Z,13.70
2023-08-08T01:14:04.103Z,13.61
2023-08-08T01:16:31.233Z,13.61
2023-08-08T01:18:58.281Z,13.50
2023-08-08T01:21:27.079Z,13.46
2023-08-08T01:23:56.646Z,13.45
2023-08-08T01:26:23.383Z,13.44
2023-08-08T01:28:53.955Z,13.46
2023-08-08T01:31:20.757Z,13.42
2023-08-08T01:33:47.679Z,13.32
2023-08-08T01:36:24.803Z,13.32
2023-08-08T01:38:53.200Z,13.33
2023-08-08T01:41:20.061Z,13.38
2023-08-08T01:43:46.836Z,13.40
2023-08-08T01:46:13.637Z,13.26
2023-08-08T01:48:40.192Z,13.23
2023-08-08T01:51:06.768Z,13.24
2023-08-08T01:53:33.365Z,13.21
2023-08-08T01:55:59.945Z,13.24
2023-08-08T01:58:26.728Z,13.23
2023-08-08T02:00:53.252Z,13.22
2023-08-08T02:03:19.903Z,13.24
2023-08-08T02:05:46.584Z,13.26
2023-08-08T02:08:13.964Z,13.16
2023-08-08T02:10:40.550Z,13.19
2023-08-08T02:13:07.087Z,13.14
2023-08-08T02:15:33.591Z,13.12
2023-08-08T02:18:00.953Z,13.04
2023-08-08T02:20:27.594Z,13.02
2023-08-08T02:22:54.175Z,12.99
2023-08-08T02:25:20.738Z,12.99
2023-08-08T02:27:47.239Z,12.96
2023-08-08T02:30:14.403Z,12.98
2023-08-08T02:32:40.955Z,12.89
2023-08-08T02:35:08.009Z,12.85
2023-08-08T02:37:35.340Z,12.87
2023-08-08T02:40:02.208Z,12.87
2023-08-08T02:42:28.730Z,12.84
2023-08-08T02:44:55.232Z,12.83
2023-08-08T02:47:22.028Z,12.80
2023-08-08T02:49:48.582Z,12.73
2023-08-08T02:52:15.170Z,12.76
2023-08-08T02:54:41.676Z,12.70
2023-08-08T02:57:08.198Z,12.61
2023-08-08T02:59:35.323Z,12.63
2023-08-08T03:02:02.247Z,12.59
2023-08-08T03:04:29.174Z,12.57
2023-08-08T03:06:55.769Z,12.56
2023-08-08T03:09:22.538Z,12.57
2023-08-08T03:11:49.071Z,12.50
2023-08-08T03:14:15.650Z,12.46
2023-08-08T03:16:42.403Z,12.45
2023-08-08T03:19:09.183Z,12.42
2023-08-08T03:21:36.753Z,12.45
2023-08-08T03:24:03.508Z,12.43
2023-08-08T03:26:30.182Z,12.41
2023-08-08T03:28:56.864Z,12.35
2023-08-08T03:31:23.612Z,12.43
2023-08-08T03:33:50.221Z,12.43
2023-08-08T03:36:17.039Z,12.39
2023-08-08T03:38:47.139Z,12.31
2023-08-08T03:41:14.716Z,12.25
2023-08-08T03:43:41.726Z,12.34
2023-08-08T03:46:08.525Z,12.27
2023-08-08T03:48:38.204Z,12.26
2023-08-08T03:51:04.920Z,12.32
2023-08-08T03:53:31.551Z,12.32
2023-08-08T03:55:58.277Z,12.39
2023-08-08T03:58:24.856Z,12.36
2023-08-08T04:00:52.401Z,12.39
2023-08-08T04:03:19.512Z,12.43
2023-08-08T04:05:47.923Z,12.56
2023-08-08T04:08:15.640Z,12.61
2023-08-08T04:10:42.701Z,12.62
2023-08-08T04:13:09.366Z,12.66
2023-08-08T04:15:36.818Z,12.67
2023-08-08T04:18:03.533Z,12.70
2023-08-08T04:20:30.128Z,12.76
2023-08-08T04:22:56.826Z,12.90
2023-08-08T04:25:23.350Z,12.96
2023-08-08T04:27:49.870Z,13.06
2023-08-08T04:30:16.681Z,13.08
2023-08-08T04:32:43.406Z,13.15
2023-08-08T04:35:09.965Z,13.16
2023-08-08T04:37:36.740Z,13.31
2023-08-08T04:40:03.744Z,13.24
2023-08-08T04:42:30.975Z,13.28
2023-08-08T04:44:57.614Z,13.34
2023-08-08T04:47:24.240Z,13.25
2023-08-08T04:49:50.906Z,13.39
2023-08-08T04:52:17.461Z,13.37
2023-08-08T04:54:45.222Z,13.47
2023-08-08T04:57:11.754Z,13.73
2023-08-08T04:59:38.325Z,13.79
2023-08-08T05:02:05.090Z,13.86
2023-08-08T05:04:31.910Z,13.82
2023-08-08T05:06:58.827Z,13.83
2023-08-08T05:09:27.571Z,13.86
2023-08-08T05:11:54.326Z,13.89
2023-08-08T05:14:20.992Z,13.97
2023-08-08T05:16:47.617Z,14.02
2023-08-08T05:19:14.123Z,14.01
2023-08-08T05:21:40.731Z,14.11
2023-08-08T05:24:07.367Z,14.17
2023-08-08T05:26:33.901Z,14.38
2023-08-08T05:29:00.435Z,14.46
2023-08-08T05:31:26.956Z,14.43
2023-08-08T05:33:53.831Z,14.56
2023-08-08T05:36:20.369Z,14.75
2023-08-08T05:38:46.972Z,14.63
2023-08-08T05:41:13.522Z,14.50
2023-08-08T05:43:40.014Z,14.59
2023-08-08T05:46:06.735Z,14.86
2023-08-08T05:48:33.324Z,14.73
2023-08-08T05:51:00.967Z,14.54
2023-08-08T05:53:27.693Z,14.67
2023-08-08T05:55:54.204Z,14.71
2023-08-08T05:58:20.707Z,14.65
2023-08-08T06:00:47.832Z,14.53
2023-08-08T06:03:14.507Z,14.54
2023-08-08T06:05:41.047Z,14.76
2023-08-08T06:08:12.507Z,15.17
2023-08-08T06:10:39.014Z,15.27
2023-08-08T06:13:05.718Z,15.47
2023-08-08T06:15:32.344Z,15.43
2023-08-08T06:17:58.996Z,15.16
2023-08-08T06:20:25.770Z,15.04
2023-08-08T06:22:52.990Z,15.13
2023-08-08T06:25:19.815Z,15.18
2023-08-08T06:27:47.908Z,15.27
2023-08-08T06:30:15.031Z,15.16
2023-08-08T06:32:41.590Z,15.29
2023-08-08T06:35:09.964Z,15.52
2023-08-08T06:37:37.210Z,15.87
2023-08-08T06:40:04.112Z,15.57
2023-08-08T06:42:30.681Z,15.05
2023-08-08T06:44:57.699Z,15.36
2023-08-08T06:47:24.299Z,15.81
2023-08-08T06:49:51.069Z,15.47
2023-08-08T06:52:17.689Z,15.96
2023-08-08T06:54:44.191Z,16.04
2023-08-08T06:57:10.708Z,15.95
2023-08-08T06:59:37.224Z,15.80
2023-08-08T07:02:04.293Z,15.79
2023-08-08T07:04:31.478Z,15.79
2023-08-08T07:06:58.012Z,15.94
2023-08-08T07:09:25.629Z,16.48
2023-08-08T07:11:52.210Z,16.41
2023-08-08T07:14:18.806Z,16.47
2023-08-08T07:16:45.417Z,16.55
2023-08-08T07:19:12.922Z,16.71
2023-08-08T07:21:39.494Z,16.92
2023-08-08T07:24:06.039Z,16.98
2023-08-08T07:26:32.761Z,16.73
2023-08-08T07:28:59.424Z,16.66
2023-08-08T07:31:26.096Z,16.44
2023-08-08T07:33:52.776Z,16.40
2023-08-08T07:36:19.367Z,16.71
2023-08-08T07:38:45.871Z,16.52
2023-08-08T07:41:12.513Z,16.46
2023-08-08T07:43:39.041Z,16.84
2023-08-08T07:46:05.630Z,17.32
2023-08-08T07:48:32.583Z,16.89
2023-08-08T07:50:59.156Z,16.66
2023-08-08T07:53:25.717Z,16.58
2023-08-08T07:55:52.293Z,16.53
2023-08-08T07:58:18.893Z,16.58
2023-08-08T08:00:45.781Z,17.03
2023-08-08T08:03:12.464Z,17.17
2023-08-08T08:05:39.053Z,17.11
2023-08-08T08:08:05.874Z,17.35
2023-08-08T08:10:32.405Z,17.18
2023-08-08T08:12:59.482Z,16.85
2023-08-08T08:15:26.749Z,17.40
2023-08-08T08:17:53.581Z,17.58
2023-08-08T08:20:21.714Z,18.10
2023-08-08T08:22:48.400Z,18.12
2023-08-08T08:25:15.988Z,18.18
2023-08-08T08:27:42.856Z,18.09
2023-08-08T08:30:11.340Z,17.56
2023-08-08T08:32:40.309Z,17.15
2023-08-08T08:35:07.819Z,17.70
2023-08-08T08:37:35.292Z,17.89
2023-08-08T08:40:02.139Z,17.35
2023-08-08T08:42:29.438Z,17.25
2023-08-08T08:44:58.774Z,17.77
2023-08-08T08:47:26.418Z,18.23
2023-08-08T08:49:53.552Z,18.44
2023-08-08T08:52:20.265Z,18.37
2023-08-08T08:54:46.975Z,17.76
2023-08-08T08:57:13.568Z,18.15
2023-08-08T08:59:40.085Z,18.31
2023-08-08T09:02:07.362Z,18.56
2023-08-08T09:04:36.351Z,18.41
2023-08-08T09:07:03.469Z,18.10
2023-08-08T09:09:33.330Z,18.14
2023-08-08T09:12:00.355Z,18.05
2023-08-08T09:14:28.455Z,17.81
2023-08-08T09:16:55.496Z,18.05
2023-08-08T09:19:24.708Z,17.95
2023-08-08T09:21:52.778Z,18.13
2023-08-08T09:24:19.785Z,18.51
2023-08-08T09:26:46.404Z,18.78
2023-08-08T09:29:15.521Z,18.62
2023-08-08T09:31:42.212Z,18.35
2023-08-08T09:34:08.852Z,18.09
2023-08-08T09:36:37.925Z,18.19
2023-08-08T09:39:05.886Z,17.98
2023-08-08T09:41:32.680Z,17.84
2023-08-08T09:43:59.902Z,17.43
2023-08-08T09:46:26.644Z,17.42
2023-08-08T09:48:53.693Z,17.24
2023-08-08T09:51:21.618Z,17.29
2023-08-08T09:53:48.730Z,17.34
2023-08-08T09:56:15.330Z,17.35
2023-08-08T09:58:43.704Z,17.24
2023-08-08T10:01:11.718Z,17.39
2023-08-08T10:03:39.165Z,17.83
2023-08-08T10:06:06.745Z,18.46
2023-08-08T10:08:33.285Z,18.91
2023-08-08T10:11:00.255Z,18.76
2023-08-08T10:13:27.985Z,19.12
2023-08-08T10:15:55.764Z,18.85
2023-08-08T10:18:23.287Z,18.68
2023-08-08T10:20:50.795Z,19.12
2023-08-08T10:23:20.910Z,18.93
2023-08-08T10:25:49.838Z,18.91
2023-08-08T10:28:27.111Z,19.03
2023-08-08T10:30:59.815Z,19.38
2023-08-08T10:33:41.577Z,19.70
2023-08-08T10:36:09.243Z,19.74
2023-08-08T10:38:47.939Z,19.49
2023-08-08T10:41:16.772Z,19.53
2023-08-08T10:43:54.897Z,18.60
2023-08-08T10:46:39.393Z,18.37
2023-08-08T10:49:06.682Z,18.88
2023-08-08T10:51:38.918Z,19.39
2023-08-08T10:54:07.500Z,19.66
2023-08-08T10:56:37.465Z,19.60
2023-08-08T10:59:17.680Z,19.52
2023-08-08T11:01:46.746Z,19.80
2023-08-08T11:04:13.376Z,19.36
2023-08-08T11:06:40.738Z,19.68
2023-08-08T11:09:08.039Z,19.63
2023-08-08T11:11:44.850Z,19.60
2023-08-08T11:14:19.137Z,19.96
2023-08-08T11:16:46.805Z,20.00
2023-08-08T11:19:13.934Z,20.37
2023-08-08T11:21:44.567Z,20.03
2023-08-08T11:24:12.382Z,19.91
2023-08-08T11:26:40.733Z,19.98
2023-08-08T11:29:07.593Z,19.31
2023-08-08T11:31:37.489Z,18.77
2023-08-08T11:34:05.589Z,18.90
2023-08-08T11:36:35.263Z,19.03
2023-08-08T11:39:08.692Z,19.26
2023-08-08T11:41:37.022Z,19.79
2023-08-08T11:44:05.054Z,20.13
2023-08-08T11:46:35.508Z,20.02
2023-08-08T11:49:08.242Z,19.78
2023-08-08T11:51:36.663Z,19.92
2023-08-08T11:54:05.209Z,20.31
2023-08-08T11:56:35.722Z,20.17
2023-08-08T11:59:03.230Z,19.79
2023-08-08T12:01:32.056Z,19.56
2023-08-08T12:03:58.867Z,19.84
2023-08-08T12:06:30.073Z,20.36
2023-08-08T12:08:56.966Z,20.57
2023-08-08T12:11:26.240Z,20.32
2023-08-08T12:14:00.482Z,19.72
2023-08-08T12:16:32.233Z,19.95
2023-08-08T12:19:03.748Z,19.76
2023-08-08T12:21:30.574Z,19.35
2023-08-08T12:23:57.269Z,18.82
2023-08-08T12:26:24.017Z,18.69
2023-08-08T12:28:52.019Z,18.68
2023-08-08T12:31:18.640Z,18.98
2023-08-08T12:33:46.774Z,19.48
2023-08-08T12:36:13.621Z,19.79
2023-08-08T12:38:41.482Z,20.06
2023-08-08T12:41:08.254Z,19.63
2023-08-08T12:43:36.734Z,19.69
2023-08-08T12:46:03.295Z,19.55
2023-08-08T12:48:29.973Z,19.55
2023-08-08T12:50:56.670Z,19.56
2023-08-08T12:53:23.200Z,19.64
2023-08-08T12:55:49.857Z,19.83
2023-08-08T12:58:16.440Z,20.19
2023-08-08T13:00:43.004Z,20.32
2023-08-08T13:03:10.511Z,19.97
2023-08-08T13:05:37.918Z,20.14
2023-08-08T13:08:04.806Z,20.30
2023-08-08T13:10:31.849Z,19.92
2023-08-08T13:12:58.691Z,19.81
2023-08-08T13:15:25.408Z,19.94
2023-08-08T13:17:52.014Z,19.60
2023-08-08T13:20:18.871Z,19.62
2023-08-08T13:22:45.554Z,19.52
2023-08-08T13:25:12.357Z,19.31
2023-08-08T13:27:39.020Z,19.11
2023-08-08T13:30:06.690Z,18.96
2023-08-08T13:32:33.322Z,19.00
2023-08-08T13:35:00.260Z,19.20
2023-08-08T13:37:26.803Z,19.11
2023-08-08T13:39:53.477Z,19.00
2023-08-08T13:42:19.967Z,19.00
2023-08-08T13:44:46.494Z,18.94
2023-08-08T13:47:13.153Z,18.40
2023-08-08T13:49:39.848Z,18.40
2023-08-08T13:52:06.768Z,18.60
2023-08-08T13:54:33.288Z,18.78
2023-08-08T13:56:59.885Z,19.06
2023-08-08T13:59:27.769Z,19.22
2023-08-08T14:01:54.503Z,19.29
2023-08-08T14:04:21.057Z,19.47
2023-08-08T14:06:47.759Z,19.56
2023-08-08T14:09:15.337Z,19.47
2023-08-08T14:11:43.113Z,19.72
2023-08-08T14:14:09.898Z,19.89
2023-08-08T14:16:36.981Z,19.75
2023-08-08T14:19:03.935Z,19.65
2023-08-08T14:21:30.494Z,19.50
2023-08-08T14:23:57.121Z,19.49
2023-08-08T14:26:23.739Z,19.36
2023-08-08T14:28:50.315Z,19.74
2023-08-08T14:31:17.148Z,20.11
2023-08-08T14:33:43.712Z,20.41
2023-08-08T14:36:10.616Z,20.51
2023-08-08T14:38:37.967Z,21.08
2023-08-08T14:41:05.220Z,21.10
2023-08-08T14:43:32.022Z,20.62
2023-08-08T14:45:58.868Z,21.14
2023-08-08T14:48:25.611Z,21.29
2023-08-08T14:50:52.446Z,20.77
2023-08-08T14:53:19.095Z,21.01
2023-08-08T14:55:46.188Z,20.41
2023-08-08T14:58:13.478Z,20.24
2023-08-08T15:00:40.170Z,19.73
2023-08-08T15:03:06.957Z,19.78
2023-08-08T15:05:33.720Z,19.75
2023-08-08T15:08:00.337Z,19.75
2023-08-08T15:10:26.948Z,19.67
2023-08-08T15:12:53.662Z,19.64
2023-08-08T15:15:24.171Z,19.84
2023-08-08T15:17:51.125Z,19.72
2023-08-08T15:20:17.894Z,19.79
2023-08-08T15:22:44.597Z,19.79
2023-08-08T15:25:11.153Z,19.64
2023-08-08T15:27:37.766Z,19.58
2023-08-08T15:30:05.471Z,19.54
2023-08-08T15:32:32.024Z,19.55
2023-08-08T15:34:59.129Z,19.61
2023-08-08T15:37:25.671Z,19.55
2023-08-08T15:39:52.180Z,19.61
2023-08-08T15:42:18.692Z,19.73
2023-08-08T15:44:45.214Z,19.65
2023-08-08T15:47:11.831Z,19.77
2023-08-08T15:49:38.389Z,19.87
2023-08-08T15:52:06.195Z,19.97
2023-08-08T15:54:32.701Z,20.39
2023-08-08T15:56:59.588Z,20.49
2023-08-08T15:59:26.591Z,20.41
2023-08-08T16:01:53.225Z,20.35
2023-08-08T16:04:19.892Z,20.59
2023-08-08T16:06:46.502Z,20.52
2023-08-08T16:09:13.177Z,20.25
2023-08-08T16:11:39.669Z,19.64
2023-08-08T16:14:06.846Z,19.72
2023-08-08T16:16:33.548Z,19.42
2023-08-08T16:19:00.421Z,19.36
2023-08-08T16:21:27.089Z,19.52
2023-08-08T16:23:53.642Z,19.52
2023-08-08T16:26:20.256Z,19.80
2023-08-08T16:28:46.864Z,19.66
2023-08-08T16:31:13.565Z,19.61
2023-08-08T16:33:40.098Z,19.56
2023-08-08T16:36:07.354Z,19.53
2023-08-08T16:38:33.807Z,19.61
2023-08-08T16:41:00.487Z,19.51
2023-08-08T16:43:32.169Z,19.38
2023-08-08T16:45:59.655Z,19.33
2023-08-08T16:48:26.800Z,19.04
2023-08-08T16:50:54.787Z,18.82
2023-08-08T16:53:21.634Z,18.62
2023-08-08T16:55:48.205Z,18.50
2023-08-08T16:58:15.493Z,18.52
2023-08-08T17:00:42.648Z,18.57
2023-08-08T17:03:10.001Z,18.54
2023-08-08T17:05:36.790Z,18.78
2023-08-08T17:08:03.540Z,18.96
2023-08-08T17:10:30.100Z,19.06
2023-08-08T17:12:56.686Z,19.13
2023-08-08T17:15:23.229Z,19.02
2023-08-08T17:17:50.229Z,19.07
2023-08-08T17:20:16.782Z,19.07
2023-08-08T17:22:43.469Z,19.09
2023-08-08T17:25:10.156Z,19.02
2023-08-08T17:27:37.019Z,18.87
2023-08-08T17:30:04.999Z,18.89
2023-08-08T17:32:31.552Z,18.83
2023-08-08T17:34:58.125Z,18.72
2023-08-08T17:37:24.681Z,18.68
2023-08-08T17:39:51.281Z,18.56
2023-08-08T17:42:17.920Z,18.45
2023-08-08T17:44:45.923Z,18.37
2023-08-08T17:47:12.585Z,18.28
2023-08-08T17:49:40.098Z,18.29
2023-08-08T17:52:07.015Z,18.37
2023-08-08T17:54:33.901Z,18.12
2023-08-08T17:57:01.072Z,18.15
2023-08-08T17:59:30.741Z,18.10
2023-08-08T18:01:57.974Z,17.99
2023-08-08T18:04:24.731Z,18.01
2023-08-08T18:06:52.351Z,18.08
2023-08-08T18:09:22.802Z,17.97
2023-08-08T18:11:49.719Z,17.82
2023-08-08T18:14:16.418Z,17.89
2023-08-08T18:16:43.277Z,17.90
2023-08-08T18:19:09.950Z,17.97
2023-08-08T18:21:40.231Z,17.90
2023-08-08T18:24:07.641Z,17.87
2023-08-08T18:26:35.244Z,17.71
2023-08-08T18:29:01.815Z,17.69
2023-08-08T18:31:28.410Z,17.79
2023-08-08T18:33:58.950Z,17.83
2023-08-08T18:36:25.904Z,17.71
2023-08-08T18:38:52.723Z,17.64
2023-08-08T18:41:19.693Z,17.66
2023-08-08T18:43:46.463Z,17.93
2023-08-08T18:46:13.685Z,17.85
2023-08-08T18:48:40.340Z,17.82
2023-08-08T18:51:06.929Z,17.82
2023-08-08T18:53:33.526Z,17.88
2023-08-08T18:56:00.040Z,17.71
2023-08-08T18:58:26.960Z,17.76
2023-08-08T19:00:53.561Z,17.83
2023-08-08T19:03:20.352Z,17.72
2023-08-08T19:05:46.952Z,17.76
2023-08-08T19:08:13.715Z,17.83
2023-08-08T19:10:40.434Z,17.75
2023-08-08T19:13:07.011Z,17.62
2023-08-08T19:15:35.483Z,17.66
2023-08-08T19:18:02.092Z,17.71
2023-08-08T19:20:28.713Z,17.62
2023-08-08T19:22:55.266Z,17.59
2023-08-08T19:25:22.915Z,17.60
2023-08-08T19:27:49.407Z,17.63
2023-08-08T19:30:15.943Z,17.57
2023-08-08T19:32:42.966Z,17.42
2023-08-08T19:35:09.494Z,17.39
2023-08-08T19:37:37.099Z,17.31
2023-08-08T19:40:04.088Z,17.41
2023-08-08T19:42:30.665Z,17.38
2023-08-08T19:44:58.119Z,17.33
2023-08-08T19:47:24.823Z,17.25
2023-08-08T19:49:51.370Z,17.09
2023-08-08T19:52:17.957Z,17.03
2023-08-08T19:54:44.427Z,17.02
2023-08-08T19:57:10.932Z,17.08
2023-08-08T19:59:37.460Z,17.00
2023-08-08T20:02:05.834Z,16.93
2023-08-08T20:04:32.460Z,16.89
2023-08-08T20:06:58.963Z,16.90
2023-08-08T20:09:25.824Z,16.75
2023-08-08T20:11:52.381Z,16.61
2023-08-08T20:14:19.049Z,16.62
2023-08-08T20:16:45.568Z,16.64
2023-08-08T20:19:12.627Z,16.58
2023-08-08T20:21:39.241Z,16.59
2023-08-08T20:24:08.580Z,16.53
2023-08-08T20:26:36.727Z,16.43
2023-08-08T20:29:03.269Z,16.48
2023-08-08T20:31:29.814Z,16.49
2023-08-08T20:33:57.564Z,16.58
2023-08-08T20:36:24.722Z,16.50
2023-08-08T20:38:51.236Z,16.44
2023-08-08T20:41:17.836Z,16.35
2023-08-08T20:43:44.460Z,16.53
2023-08-08T20:46:13.541Z,16.45
2023-08-08T20:48:40.131Z,16.41
2023-08-08T20:51:06.797Z,16.30
2023-08-08T20:53:33.351Z,16.10
2023-08-08T20:56:01.451Z,16.04
2023-08-08T20:58:28.153Z,16.00
2023-08-08T21:00:54.835Z,16.08
2023-08-08T21:03:21.446Z,15.97
2023-08-08T21:05:48.094Z,15.96
2023-08-08T21:08:14.729Z,15.82
2023-08-08T21:10:41.396Z,15.75
2023-08-08T21:13:08.137Z,15.74
2023-08-08T21:15:37.084Z,15.67
2023-08-08T21:18:03.932Z,15.63
2023-08-08T21:20:30.639Z,15.56
2023-08-08T21:22:58.295Z,15.63
2023-08-08T21:25:25.058Z,15.58
2023-08-08T21:27:51.748Z,15.58
2023-08-08T21:30:18.501Z,15.56
2023-08-08T21:32:45.117Z,15.62
2023-08-08T21:35:11.636Z,15.50
2023-08-08T21:37:39.611Z,15.52
2023-08-08T21:40:07.206Z,15.53
2023-08-08T21:42:33.755Z,15.48
2023-08-08T21:45:00.871Z,15.45
2023-08-08T21:47:27.467Z,15.39
2023-08-08T21:49:54.197Z,15.32
2023-08-08T21:52:20.754Z,15.32
2023-08-08T21:54:47.330Z,15.09
2023-08-08T21:57:13.908Z,14.80
2023-08-08T21:59:40.762Z,14.81
2023-08-08T22:02:07.395Z,14.85
2023-08-08T22:04:35.024Z,14.68
2023-08-08T22:07:03.840Z,14.51
2023-08-08T22:09:30.650Z,14.47
2023-08-08T22:11:57.316Z,14.57
2023-08-08T22:14:25.121Z,14.49
2023-08-08T22:16:51.741Z,14.53
2023-08-08T22:19:18.297Z,14.43
2023-08-08T22:21:44.930Z,14.29
2023-08-08T22:24:11.461Z,14.19
2023-08-08T22:26:38.064Z,14.09
2023-08-08T22:29:04.594Z,14.12
2023-08-08T22:31:31.063Z,14.04
2023-08-08T22:33:59.065Z,14.05
2023-08-08T22:36:25.586Z,14.35
2023-08-08T22:38:52.163Z,14.14
2023-08-08T22:41:18.761Z,14.13
2023-08-08T22:43:45.830Z,14.05
2023-08-08T22:46:12.354Z,14.02
2023-08-08T22:48:39.070Z,14.10
2023-08-08T22:51:05.611Z,13.98
2023-08-08T22:53:32.150Z,13.99
2023-08-08T22:55:58.697Z,14.10
2023-08-08T22:58:25.469Z,14.25
2023-08-08T23:00:51.982Z,14.23
2023-08-08T23:03:18.649Z,14.19
2023-08-08T23:05:45.405Z,14.30
2023-08-08T23:08:11.934Z,14.39
2023-08-08T23:10:38.451Z,14.46
2023-08-08T23:13:04.986Z,14.46
2023-08-08T23:15:31.603Z,14.48
2023-08-08T23:17:58.168Z,14.39
2023-08-08T23:20:24.839Z,14.37
2023-08-08T23:22:51.425Z,14.36
2023-08-08T23:25:19.167Z,14.13
2023-08-08T23:27:46.481Z,14.12
2023-08-08T23:30:13.049Z,13.98
2023-08-08T23:32:42.379Z,14.13
2023-08-08T23:35:13.695Z,14.06
2023-08-08T23:37:40.323Z,14.17
2023-08-08T23:40:10.047Z,14.18
2023-08-08T23:42:37.412Z,14.27
2023-08-08T23:45:06.701Z,14.26
2023-08-08T23:47:33.445Z,14.15
2023-08-08T23:50:00.439Z,14.04
2023-08-08T23:52:27.038Z,13.98
2023-08-08T23:54:53.719Z,13.89
2023-08-08T23:57:20.208Z,13.91
2023-08-08T23:59:46.940Z,13.86
